Latest Weather Observations for Condobolin Airport

IDN60801

Issued at 10:32 pm EST Friday 28 August 2015 (issued every 30 minutes, with the page automatically refreshed every 10 minutes)

About weather observations | Map of weather stations | Latest weather observations for NSW | Other Formats
Station Details ID: 050137 Name: CONDOBOLIN AIRPORT AWS Lat: -33.07 Lon: 147.21 Height: 192.6 m
Data from the previous 72 hours. | See also: Recent months at Condobolin Airport
Date/Time
EST
Temp
°C
App
Temp
°C
Dew
Point
Rel
Hum
%
Delta-T
°C
Wind Press
QNH
hPa
Press
MSL
hPa
Rain
since 9 am
mm
Dir
 
Spd
km/h
Gust
km/h
Spd
kts
Gust
kts
28/10:30pm 9.2 8.6 9.1 99 0.0 SW 2 7 1 4 1025.0 1025.2 0.0
28/10:00pm 8.1 5.9 8.0 99 0.0 NW 9 11 5 6 1025.0 1025.2 0.0
28/09:30pm 7.5 6.8 7.1 97 0.2 CALM 0 0 0 0 1024.8 1025.1 0.0
28/09:00pm 7.7 7.1 7.3 97 0.2 CALM 0 0 0 0 1024.7 1025.0 0.0
28/08:30pm 7.7 7.1 7.3 97 0.2 CALM 0 6 0 3 1024.5 1024.8 0.0
28/08:00pm 8.1 6.3 7.8 98 0.1 ENE 7 9 4 5 1024.3 1024.6 0.0
28/07:30pm 7.6 6.8 6.4 92 0.6 CALM 0 0 0 0 1024.2 1024.5 0.0
28/07:00pm 8.1 7.1 5.7 85 1.1 CALM 0 0 0 0 1024.0 1024.3 0.0
28/06:30pm 10.3 9.8 7.7 84 1.3 CALM 0 0 0 0 1023.7 1024.0 0.0
28/06:00pm 11.5 9.8 8.4 81 1.5 SW 7 9 4 5 1023.6 1023.9 0.0
28/05:30pm 12.6 10.1 8.3 75 2.2 SW 11 13 6 7 1023.4 1023.7 0.0
28/05:00pm 13.3 10.5 8.6 73 2.4 SW 13 17 7 9 1023.3 1023.6 0.0
28/04:30pm 13.6 10.3 8.2 70 2.7 SW 15 20 8 11 1023.1 1023.4 0.0
28/04:00pm 13.7 10.0 8.1 69 2.8 SW 17 20 9 11 1023.0 1023.2 0.0
28/03:30pm 14.2 11.4 8.4 68 2.9 SW 13 19 7 10 1023.0 1023.2 0.0
28/03:00pm 14.3 10.4 8.5 68 2.9 SW 19 24 10 13 1022.9 1023.1 0.0
28/02:30pm 14.1 9.9 8.1 67 3.0 WSW 20 26 11 14 1022.9 1023.1 0.0
28/02:00pm 14.4 10.2 8.1 66 3.2 SW 20 28 11 15 1023.0 1023.2 0.0
28/01:30pm 15.0 10.8 9.6 70 2.8 SW 22 28 12 15 1023.1 1023.4 0.0
28/01:00pm 14.3 10.0 9.3 72 2.6 WSW 22 28 12 15 1023.4 1023.7 0.0
28/12:30pm 12.9 8.8 8.6 75 2.2 WSW 20 26 11 14 1023.9 1024.2 0.0
28/12:00pm 13.0 8.8 8.1 72 2.4 WSW 20 28 11 15 1024.2 1024.5 0.0
28/11:30am 12.2 9.1 8.7 79 1.8 SW 15 22 8 12 1024.7 1025.0 0.0
28/11:00am 11.5 7.9 8.4 81 1.5 WSW 17 22 9 12 1025.1 1025.3 0.0
28/10:30am 10.5 7.2 8.1 85 1.2 WSW 15 20 8 11 1025.0 1025.2 0.0
28/10:00am 9.9 6.1 7.7 86 1.1 WSW 17 22 9 12 1024.7 1025.0 0.0
28/09:30am 10.1 6.0 7.9 86 1.1 SW 19 28 10 15 1024.6 1024.9 0.0
28/09:00am 9.4 6.0 7.8 90 0.8 WSW 15 20 8 11 1024.5 1024.8 8.8
28/08:30am 8.8 5.7 7.4 91 0.7 W 13 19 7 10 1024.2 1024.5 8.8
28/08:00am 7.7 4.2 7.0 95 0.3 WNW 15 20 8 11 1024.0 1024.3 8.8
28/07:30am 7.1 3.4 6.5 96 0.3 WNW 15 19 8 10 1023.7 1024.0 8.8
28/07:00am 6.3 3.3 6.0 98 0.1 WNW 11 17 6 9 1023.4 1023.7 8.8
28/06:30am 5.9 2.4 5.5 97 0.2 W 13 17 7 9 1023.0 1023.2 8.8
28/06:00am 5.9 2.0 5.5 97 0.2 WNW 15 20 8 11 1022.7 1022.9 8.8
28/05:30am 5.8 2.3 5.5 98 0.1 W 13 15 7 8 1022.4 1022.6 8.8
28/05:00am 5.7 2.6 5.4 98 0.1 WNW 11 13 6 7 1022.2 1022.4 8.8
28/04:30am 5.5 2.3 5.2 98 0.1 WNW 11 15 6 8 1022.0 1022.2 8.8
28/04:00am 5.4 2.2 5.0 97 0.2 NW 11 13 6 7 1021.7 1021.9 8.8
28/03:30am 5.9 2.8 5.5 97 0.2 WNW 11 15 6 8 1021.7 1021.9 8.8
28/03:00am 5.3 2.4 4.4 94 0.4 WNW 9 13 5 7 1021.8 1022.0 8.8
28/02:30am 5.9 3.5 5.2 95 0.3 W 7 11 4 6 1022.0 1022.2 8.8
28/02:00am 5.5 2.2 4.6 94 0.4 WNW 11 13 6 7 1022.1 1022.3 8.8
28/01:30am 5.9 3.1 5.2 95 0.3 WNW 9 11 5 6 1022.2 1022.4 8.6
28/01:00am 6.0 2.5 5.4 96 0.3 WNW 13 15 7 8 1022.3 1022.5 8.6
28/12:30am 6.1 2.6 5.5 96 0.3 NW 13 15 7 8 1022.4 1022.6 8.6
28/12:00am 6.4 3.3 5.5 94 0.4 WNW 11 11 6 6 1022.5 1022.7 8.6
 
Date/Time
EST
Temp
°C
App
Temp
°C
Dew
Point
Rel
Hum
%
Delta-T
°C
Wind Press
QNH
hPa
Press
MSL
hPa
Rain
since 9 am
mm
Dir
 
Spd
km/h
Gust
km/h
Spd
kts
Gust
kts
27/11:30pm 6.6 3.9 5.6 93 0.4 WNW 9 11 5 6 1022.5 1022.7 8.6
27/11:00pm 6.6 3.9 5.4 92 0.5 WNW 9 11 5 6 1022.6 1022.8 8.6
27/10:30pm 7.4 4.4 5.9 90 0.7 W 11 15 6 8 1022.6 1022.8 8.6
27/10:00pm 7.5 4.2 6.6 94 0.4 WNW 13 17 7 9 1022.6 1022.8 8.6
27/09:30pm 7.2 3.9 6.3 94 0.4 NW 13 15 7 8 1022.7 1022.9 8.6
27/09:00pm 7.5 4.9 6.3 92 0.5 WNW 9 11 5 6 1022.6 1022.8 8.6
27/08:30pm 8.0 5.4 6.1 88 0.9 WSW 9 11 5 6 1022.4 1022.6 8.6
27/08:00pm 8.3 6.1 6.3 87 0.9 WNW 7 9 4 5 1022.0 1022.2 8.6
27/07:30pm 9.2 6.7 6.6 84 1.2 WSW 9 11 5 6 1021.9 1022.1 8.6
27/07:00pm 10.0 6.8 6.9 81 1.5 SW 13 15 7 8 1021.5 1021.7 8.6
27/06:30pm 10.3 7.5 6.8 79 1.7 WSW 11 13 6 7 1021.1 1021.3 8.6
27/06:00pm 11.8 7.8 6.7 71 2.4 WSW 17 22 9 12 1020.7 1020.9 8.6
27/05:30pm 13.0 9.7 7.9 71 2.5 W 15 22 8 12 1020.2 1020.4 8.6
27/05:00pm 13.5 9.7 9.0 74 2.3 W 19 24 10 13 1019.9 1020.1 8.6
27/04:30pm 13.6 8.6 8.2 70 2.7 W 24 30 13 16 1019.9 1020.1 8.6
27/04:00pm 14.1 9.5 8.3 68 2.9 W 22 28 12 15 1019.7 1019.9 8.6
27/03:30pm 13.7 9.0 7.9 68 2.9 W 22 28 12 15 1019.7 1019.9 8.6
27/03:00pm 13.4 10.3 8.7 73 2.4 WNW 15 19 8 10 1019.6 1019.8 8.6
27/02:30pm 11.5 7.3 8.4 81 1.5 W 20 26 11 14 1019.8 1020.0 8.6
27/02:00pm 10.3 5.3 9.4 94 0.5 WSW 26 35 14 19 1020.6 1020.8 8.6
27/01:44pm 8.7 -0.3 7.3 91 0.7 W 44 65 24 35 1020.8 1021.0 8.4
27/01:38pm 8.9 -0.7 6.3 84 1.2 W 46 74 25 40 1020.7 1020.9 7.2
27/01:33pm 11.0 4.4 6.2 72 2.3 W 30 72 16 39 1020.2 1020.4 6.4
27/01:30pm 14.0 10.0 9.2 73 2.5 W 20 30 11 16 1020.1 1020.3 6.4
27/01:00pm 15.3 12.5 11.3 77 2.2 WNW 17 24 9 13 1020.0 1020.2 6.4
27/12:30pm 13.8 11.8 10.0 78 2.0 WNW 11 15 6 8 1020.4 1020.6 6.4
27/12:00pm 13.1 10.8 11.7 91 0.8 WSW 15 20 8 11 1020.8 1021.0 6.4
27/11:30am 11.5 9.8 11.3 99 0.1 SW 11 15 6 8 1021.2 1021.4 6.4
27/11:00am 11.0 8.8 10.8 99 0.1 WSW 13 17 7 9 1021.6 1021.8 6.2
27/10:30am 10.8 9.3 10.6 99 0.1 NW 9 17 5 9 1022.1 1022.3 2.2
27/10:00am 11.2 8.3 11.0 99 0.1 SW 17 20 9 11 1021.5 1021.7 0.2
27/09:30am 11.4 11.4 11.2 99 0.1 N 2 7 1 4 1021.6 1021.8 0.0
27/09:00am 11.2 11.5 11.0 99 0.1 CALM 0 0 0 0 1021.5 1021.7 0.0
27/08:30am 10.8 11.0 10.6 99 0.1 CALM 0 7 0 4 1021.6 1021.8 0.0
27/08:00am 11.0 11.3 10.8 99 0.1 CALM 0 0 0 0 1021.6 1021.8 0.0
27/07:30am 10.4 10.5 10.2 99 0.1 CALM 0 0 0 0 1021.3 1021.5 0.0
27/07:00am 10.5 10.6 10.3 99 0.1 CALM 0 0 0 0 1020.6 1020.8 0.0
27/06:30am 10.5 10.6 10.3 99 0.1 CALM 0 0 0 0 1020.4 1020.6 0.0
27/06:00am 10.3 10.0 10.1 99 0.1 NE 2 7 1 4 1020.4 1020.6 0.0
27/05:30am 10.1 10.1 9.9 99 0.1 CALM 0 0 0 0 1020.4 1020.6 0.0
27/05:00am 10.0 10.0 9.9 99 0.1 CALM 0 0 0 0 1020.4 1020.6 0.0
27/04:30am 8.5 8.1 8.4 99 0.0 CALM 0 0 0 0 1019.2 1019.5 0.0
27/04:00am 8.9 8.3 8.8 99 0.0 NNW 2 6 1 3 1020.0 1020.2 0.0
27/03:30am 9.9 8.8 9.8 99 0.1 W 6 7 3 4 1020.2 1020.4 0.0
27/03:00am 10.4 9.2 10.2 99 0.1 NW 7 9 4 5 1020.3 1020.5 0.0
27/02:30am 10.1 9.3 9.8 98 0.2 WSW 4 7 2 4 1020.2 1020.4 0.0
27/02:00am 10.9 10.0 10.6 98 0.2 WSW 6 7 3 4 1020.5 1020.7 0.0
27/01:30am 11.3 11.5 10.5 95 0.4 CALM 0 0 0 0 1020.7 1020.9 0.0
27/01:00am 11.7 10.4 11.1 96 0.3 SSW 9 11 5 6 1020.9 1021.1 0.0
27/12:30am 12.2 12.6 11.3 94 0.5 CALM 0 6 0 3 1021.2 1021.4 0.0
27/12:00am 12.3 11.6 11.5 95 0.4 SE 6 11 3 6 1021.4 1021.6 0.0
 
Date/Time
EST
Temp
°C
App
Temp
°C
Dew
Point
Rel
Hum
%
Delta-T
°C
Wind Press
QNH
hPa
Press
MSL
hPa
Rain
since 9 am
mm
Dir
 
Spd
km/h
Gust
km/h
Spd
kts
Gust
kts
26/11:30pm 12.3 10.7 11.5 95 0.4 SSE 11 13 6 7 1021.1 1021.3 0.0
26/11:00pm 12.5 11.7 11.6 94 0.5 SSW 7 11 4 6 1021.9 1022.1 0.0
26/10:30pm 12.6 11.8 11.7 94 0.5 SW 7 9 4 5 1022.1 1022.3 0.0
26/10:00pm 12.7 11.1 11.4 92 0.7 SSW 11 15 6 8 1022.3 1022.5 0.0
26/09:30pm 13.0 10.9 11.2 89 1.0 SSW 13 15 7 8 1022.3 1022.5 0.0
26/09:00pm 13.8 12.6 11.5 86 1.2 NW 9 11 5 6 1022.4 1022.6 0.0
26/08:30pm 13.8 12.9 11.5 86 1.2 WNW 7 9 4 5 1022.4 1022.6 0.0
26/08:00pm 14.0 13.5 11.9 87 1.1 WNW 6 7 3 4 1022.4 1022.6 0.0
26/07:30pm 14.2 14.7 11.7 85 1.4 CALM 0 0 0 0 1022.0 1022.2 0.0
26/07:00pm 14.4 13.6 11.6 83 1.5 SW 7 7 4 4 1022.0 1022.2 0.0
26/06:30pm 14.5 14.6 11.5 82 1.6 S 2 7 1 4 1021.8 1022.0 0.0
26/06:00pm 14.9 15.1 10.7 76 2.2 CALM 0 0 0 0 1021.6 1021.8 0.0
26/05:30pm 15.1 14.5 10.3 73 2.5 S 4 7 2 4 1021.4 1021.6 0.0
26/05:00pm 15.5 14.4 9.8 69 3.0 SSE 6 9 3 5 1021.1 1021.3 0.0
26/04:30pm 15.8 14.4 9.7 67 3.2 SSE 7 13 4 7 1020.9 1021.1 0.0
26/04:00pm 16.0 13.9 9.7 66 3.3 SSE 11 15 6 8 1020.6 1020.8 0.0
26/03:30pm 16.0 13.8 9.4 65 3.5 SSE 11 19 6 10 1020.7 1020.9 0.0
26/03:00pm 15.9 13.8 9.8 67 3.2 SSE 11 17 6 9 1020.7 1020.9 0.0
26/02:30pm 15.8 13.2 9.5 66 3.3 SE 13 15 7 8 1020.9 1021.1 0.0
26/02:00pm 15.6 12.6 9.3 66 3.3 SE 15 20 8 11 1021.2 1021.4 0.0
26/01:30pm 15.7 13.1 9.4 66 3.3 SSE 13 20 7 11 1021.5 1021.7 0.0
26/01:00pm 16.0 12.6 9.0 63 3.6 SSE 17 24 9 13 1021.8 1022.0 0.0
26/12:30pm 16.4 13.3 8.9 61 3.9 SE 15 24 8 13 1022.0 1022.2 0.0
26/12:00pm 16.0 12.6 9.0 63 3.6 S 17 24 9 13 1022.6 1022.8 0.0
26/11:30am 15.0 11.8 8.5 65 3.3 SSW 15 26 8 14 1023.2 1023.5 0.0
26/11:00am 14.9 11.9 9.3 69 2.9 SSW 15 24 8 13 1023.4 1023.7 0.0
26/10:30am 14.3 10.4 8.7 69 2.9 SSW 19 26 10 14 1023.6 1023.9 0.0
26/10:00am 13.5 10.4 9.0 74 2.3 SSW 15 20 8 11 1023.8 1024.1 0.0
26/09:30am 12.5 9.9 9.3 81 1.6 SW 13 17 7 9 1023.7 1024.0 0.0
26/09:00am 11.4 9.6 9.3 87 1.1 SW 9 13 5 7 1023.6 1023.9 1.2
26/08:30am 10.0 8.1 8.9 93 0.5 SW 9 13 5 7 1023.4 1023.7 1.2
26/08:00am 9.0 7.0 8.5 97 0.2 SW 9 13 5 7 1023.2 1023.5 1.2
26/07:30am 8.2 6.4 8.1 99 0.0 SW 7 9 4 5 1022.8 1023.0 1.2
26/07:00am 6.9 4.8 6.8 99 0.0 SSW 7 11 4 6 1022.4 1022.6 1.2
26/06:30am 6.8 3.9 6.7 99 0.0 SSW 11 13 6 7 1022.4 1022.6 1.0
26/06:00am 6.5 4.3 6.2 98 0.1 WSW 7 7 4 4 1022.4 1022.6 1.0
26/05:30am 7.3 4.9 6.9 97 0.2 SW 9 11 5 6 1022.1 1022.3 1.0
26/05:00am 8.1 5.1 7.7 97 0.2 SSW 13 17 7 9 1021.8 1022.0 1.0
26/04:30am 8.7 5.9 8.4 98 0.1 SSW 13 17 7 9 1021.7 1021.9 1.0
26/04:00am 9.0 6.6 8.7 98 0.1 SSW 11 15 6 8 1021.9 1022.1 1.0
26/03:30am 9.2 6.5 9.1 99 0.0 SW 13 15 7 8 1022.1 1022.3 1.0
26/03:00am 9.4 6.8 9.3 99 0.0 SW 13 15 7 8 1022.3 1022.5 1.0
26/02:30am 9.6 7.4 9.5 99 0.1 SW 11 15 6 8 1022.7 1022.9 1.0
26/02:00am 9.7 7.9 9.6 99 0.1 SW 9 11 5 6 1022.7 1022.9 1.0
26/01:30am 9.9 8.2 9.8 99 0.1 SW 9 13 5 7 1022.9 1023.1 1.0
26/01:00am 10.0 7.9 9.9 99 0.1 SSW 11 15 6 8 1022.7 1022.9 1.0
26/12:30am 9.8 8.4 9.7 99 0.1 SSW 7 11 4 6 1022.6 1022.8 1.0
26/12:00am 9.8 8.0 9.5 98 0.2 SSW 9 13 5 7 1022.6 1022.8 1.0
 
Date/Time
EST
Temp
°C
App
Temp
°C
Dew
Point
Rel
Hum
%
Delta-T
°C
Wind Press
QNH
hPa
Press
MSL
hPa
Rain
since 9 am
mm
Dir
 
Spd
km/h
Gust
km/h
Spd
kts
Gust
kts
25/11:30pm 10.4 8.3 9.9 97 0.3 SSW 11 17 6 9 1022.5 1022.7 1.0
25/11:00pm 10.6 8.6 10.3 98 0.2 S 11 13 6 7 1022.4 1022.6 1.0

Other Formats:

Comma delimited format used in spreadsheet applications
http://www.bom.gov.au/fwo/IDN60801/IDN60801.95708.axf

JavaScript Object Notation format (JSON) in row-major order
http://www.bom.gov.au/fwo/IDN60801/IDN60801.95708.json